sensor_id;sensor_type;location;lat;lon;timestamp;P1;durP1;ratioP1;P2;durP2;ratioP2
69434;SDS011;56625;54.322;18.582;2023-03-23T00:01:20;17.80;;;9.50;;
69434;SDS011;56625;54.322;18.582;2023-03-23T00:03:50;18.10;;;10.00;;
69434;SDS011;56625;54.322;18.582;2023-03-23T00:06:19;18.00;;;9.50;;
69434;SDS011;56625;54.322;18.582;2023-03-23T00:08:49;19.00;;;9.90;;
69434;SDS011;56625;54.322;18.582;2023-03-23T00:11:24;20.60;;;9.70;;
69434;SDS011;56625;54.322;18.582;2023-03-23T00:13:56;19.40;;;9.40;;
69434;SDS011;56625;54.322;18.582;2023-03-23T00:16:30;16.70;;;9.70;;
69434;SDS011;56625;54.322;18.582;2023-03-23T00:19:05;17.10;;;10.40;;
69434;SDS011;56625;54.322;18.582;2023-03-23T00:21:36;16.90;;;9.30;;
69434;SDS011;56625;54.322;18.582;2023-03-23T00:24:13;16.80;;;9.30;;
69434;SDS011;56625;54.322;18.582;2023-03-23T00:26:44;17.30;;;10.00;;
69434;SDS011;56625;54.322;18.582;2023-03-23T00:29:20;18.60;;;10.10;;
69434;SDS011;56625;54.322;18.582;2023-03-23T00:31:49;18.30;;;10.00;;
69434;SDS011;56625;54.322;18.582;2023-03-23T00:34:20;18.30;;;9.80;;
69434;SDS011;56625;54.322;18.582;2023-03-23T00:36:49;17.00;;;9.10;;
69434;SDS011;56625;54.322;18.582;2023-03-23T00:39:19;18.20;;;10.20;;
69434;SDS011;56625;54.322;18.582;2023-03-23T00:41:46;18.20;;;9.90;;
69434;SDS011;56625;54.322;18.582;2023-03-23T00:44:14;18.80;;;10.20;;
69434;SDS011;56625;54.322;18.582;2023-03-23T00:46:44;17.70;;;9.90;;
69434;SDS011;56625;54.322;18.582;2023-03-23T00:49:13;20.50;;;9.60;;
69434;SDS011;56625;54.322;18.582;2023-03-23T00:51:45;16.90;;;9.40;;
69434;SDS011;56625;54.322;18.582;2023-03-23T00:54:12;17.80;;;9.60;;
69434;SDS011;56625;54.322;18.582;2023-03-23T00:56:39;18.60;;;9.30;;
69434;SDS011;56625;54.322;18.582;2023-03-23T00:59:06;16.70;;;9.60;;
69434;SDS011;56625;54.322;18.582;2023-03-23T01:01:34;17.80;;;9.30;;
69434;SDS011;56625;54.322;18.582;2023-03-23T01:04:02;16.60;;;9.00;;
69434;SDS011;56625;54.322;18.582;2023-03-23T01:06:34;16.50;;;8.70;;
69434;SDS011;56625;54.322;18.582;2023-03-23T01:09:08;17.40;;;8.80;;
69434;SDS011;56625;54.322;18.582;2023-03-23T01:11:43;18.40;;;9.20;;
69434;SDS011;56625;54.322;18.582;2023-03-23T01:14:13;17.60;;;8.80;;
69434;SDS011;56625;54.322;18.582;2023-03-23T01:16:41;16.20;;;9.00;;
69434;SDS011;56625;54.322;18.582;2023-03-23T01:19:08;16.50;;;8.60;;
69434;SDS011;56625;54.322;18.582;2023-03-23T01:21:36;16.90;;;8.50;;
69434;SDS011;56625;54.322;18.582;2023-03-23T01:24:03;17.40;;;8.30;;
69434;SDS011;56625;54.322;18.582;2023-03-23T01:26:30;16.30;;;8.10;;
69434;SDS011;56625;54.322;18.582;2023-03-23T01:28:57;14.10;;;7.90;;
69434;SDS011;56625;54.322;18.582;2023-03-23T01:31:25;15.20;;;7.80;;
69434;SDS011;56625;54.322;18.582;2023-03-23T01:33:53;16.20;;;8.90;;
69434;SDS011;56625;54.322;18.582;2023-03-23T01:36:27;17.50;;;8.60;;
69434;SDS011;56625;54.322;18.582;2023-03-23T01:38:55;16.30;;;8.30;;
69434;SDS011;56625;54.322;18.582;2023-03-23T01:41:24;16.70;;;8.40;;
69434;SDS011;56625;54.322;18.582;2023-03-23T01:43:54;15.60;;;9.10;;
69434;SDS011;56625;54.322;18.582;2023-03-23T01:46:21;14.30;;;8.00;;
69434;SDS011;56625;54.322;18.582;2023-03-23T01:48:49;16.60;;;8.40;;
69434;SDS011;56625;54.322;18.582;2023-03-23T01:51:18;13.70;;;7.60;;
69434;SDS011;56625;54.322;18.582;2023-03-23T01:53:54;15.00;;;8.40;;
69434;SDS011;56625;54.322;18.582;2023-03-23T01:56:27;15.00;;;7.70;;
69434;SDS011;56625;54.322;18.582;2023-03-23T01:58:59;14.30;;;7.70;;
69434;SDS011;56625;54.322;18.582;2023-03-23T02:01:26;15.80;;;8.20;;
69434;SDS011;56625;54.322;18.582;2023-03-23T02:03:55;15.90;;;7.90;;
69434;SDS011;56625;54.322;18.582;2023-03-23T02:06:24;14.80;;;8.30;;
69434;SDS011;56625;54.322;18.582;2023-03-23T02:08:51;18.90;;;7.60;;
69434;SDS011;56625;54.322;18.582;2023-03-23T02:11:20;17.70;;;8.20;;
69434;SDS011;56625;54.322;18.582;2023-03-23T02:13:49;14.20;;;7.70;;
69434;SDS011;56625;54.322;18.582;2023-03-23T02:22:02;15.80;;;8.20;;
69434;SDS011;56625;54.322;18.582;2023-03-23T02:28:08;14.40;;;7.10;;
69434;SDS011;56625;54.322;18.582;2023-03-23T02:36:31;14.40;;;7.10;;
69434;SDS011;56625;54.322;18.582;2023-03-23T02:41:45;13.70;;;7.60;;
69434;SDS011;56625;54.322;18.582;2023-03-23T02:44:16;14.90;;;7.60;;
69434;SDS011;56625;54.322;18.582;2023-03-23T02:46:44;15.90;;;7.90;;
69434;SDS011;56625;54.322;18.582;2023-03-23T02:49:13;13.40;;;7.20;;
69434;SDS011;56625;54.322;18.582;2023-03-23T02:51:45;14.10;;;7.80;;
69434;SDS011;56625;54.322;18.582;2023-03-23T02:54:15;14.20;;;7.50;;
69434;SDS011;56625;54.322;18.582;2023-03-23T02:56:45;13.20;;;7.20;;
69434;SDS011;56625;54.322;18.582;2023-03-23T02:59:13;16.30;;;7.50;;
69434;SDS011;56625;54.322;18.582;2023-03-23T03:04:14;13.70;;;6.80;;
69434;SDS011;56625;54.322;18.582;2023-03-23T03:06:51;13.50;;;6.70;;
69434;SDS011;56625;54.322;18.582;2023-03-23T03:09:48;14.40;;;6.80;;
69434;SDS011;56625;54.322;18.582;2023-03-23T03:15:28;14.90;;;6.30;;
69434;SDS011;56625;54.322;18.582;2023-03-23T03:18:03;13.50;;;6.60;;
69434;SDS011;56625;54.322;18.582;2023-03-23T03:20:35;14.10;;;6.60;;
69434;SDS011;56625;54.322;18.582;2023-03-23T03:23:08;13.60;;;7.00;;
69434;SDS011;56625;54.322;18.582;2023-03-23T03:25:40;14.20;;;6.80;;
69434;SDS011;56625;54.322;18.582;2023-03-23T03:28:18;13.80;;;6.70;;
69434;SDS011;56625;54.322;18.582;2023-03-23T03:30:53;13.30;;;6.60;;
69434;SDS011;56625;54.322;18.582;2023-03-23T03:33:24;13.40;;;6.60;;
69434;SDS011;56625;54.322;18.582;2023-03-23T03:35:54;14.80;;;7.10;;
69434;SDS011;56625;54.322;18.582;2023-03-23T03:38:23;15.10;;;7.00;;
69434;SDS011;56625;54.322;18.582;2023-03-23T03:40:51;13.70;;;6.60;;
69434;SDS011;56625;54.322;18.582;2023-03-23T03:43:18;14.80;;;7.20;;
69434;SDS011;56625;54.322;18.582;2023-03-23T03:45:46;14.00;;;7.50;;
69434;SDS011;56625;54.322;18.582;2023-03-23T03:48:13;12.90;;;6.70;;
69434;SDS011;56625;54.322;18.582;2023-03-23T03:50:39;14.50;;;7.40;;
69434;SDS011;56625;54.322;18.582;2023-03-23T03:53:06;13.80;;;7.00;;
69434;SDS011;56625;54.322;18.582;2023-03-23T03:55:33;12.30;;;6.50;;
69434;SDS011;56625;54.322;18.582;2023-03-23T03:58:04;15.10;;;6.60;;
69434;SDS011;56625;54.322;18.582;2023-03-23T04:00:31;12.60;;;6.60;;
69434;SDS011;56625;54.322;18.582;2023-03-23T04:02:58;13.70;;;6.60;;
69434;SDS011;56625;54.322;18.582;2023-03-23T04:05:26;12.70;;;6.00;;
69434;SDS011;56625;54.322;18.582;2023-03-23T04:07:55;11.80;;;6.20;;
69434;SDS011;56625;54.322;18.582;2023-03-23T04:10:28;12.10;;;6.20;;
69434;SDS011;56625;54.322;18.582;2023-03-23T04:12:56;12.90;;;6.70;;
69434;SDS011;56625;54.322;18.582;2023-03-23T04:15:23;13.10;;;6.90;;
69434;SDS011;56625;54.322;18.582;2023-03-23T04:17:50;13.00;;;6.30;;
69434;SDS011;56625;54.322;18.582;2023-03-23T04:20:17;12.60;;;6.00;;
69434;SDS011;56625;54.322;18.582;2023-03-23T04:22:45;14.40;;;6.10;;
69434;SDS011;56625;54.322;18.582;2023-03-23T04:25:19;11.60;;;5.90;;
69434;SDS011;56625;54.322;18.582;2023-03-23T04:27:50;12.10;;;6.20;;
69434;SDS011;56625;54.322;18.582;2023-03-23T04:30:22;12.00;;;5.60;;
69434;SDS011;56625;54.322;18.582;2023-03-23T04:32:51;11.10;;;5.90;;
69434;SDS011;56625;54.322;18.582;2023-03-23T04:35:23;12.90;;;6.20;;
69434;SDS011;56625;54.322;18.582;2023-03-23T04:37:53;11.10;;;6.10;;
69434;SDS011;56625;54.322;18.582;2023-03-23T04:40:21;13.30;;;6.00;;
69434;SDS011;56625;54.322;18.582;2023-03-23T04:42:49;10.30;;;5.10;;
69434;SDS011;56625;54.322;18.582;2023-03-23T04:45:20;11.50;;;5.30;;
69434;SDS011;56625;54.322;18.582;2023-03-23T04:47:49;13.50;;;5.20;;
69434;SDS011;56625;54.322;18.582;2023-03-23T04:50:28;11.10;;;5.60;;
69434;SDS011;56625;54.322;18.582;2023-03-23T04:52:57;11.10;;;5.50;;
69434;SDS011;56625;54.322;18.582;2023-03-23T04:55:25;12.50;;;5.40;;
69434;SDS011;56625;54.322;18.582;2023-03-23T04:57:52;11.30;;;5.40;;
69434;SDS011;56625;54.322;18.582;2023-03-23T05:00:19;12.10;;;5.00;;
69434;SDS011;56625;54.322;18.582;2023-03-23T05:02:47;11.20;;;4.90;;
69434;SDS011;56625;54.322;18.582;2023-03-23T05:05:19;13.10;;;5.20;;
69434;SDS011;56625;54.322;18.582;2023-03-23T05:07:48;10.20;;;4.00;;
69434;SDS011;56625;54.322;18.582;2023-03-23T05:10:16;11.40;;;4.30;;
69434;SDS011;56625;54.322;18.582;2023-03-23T05:12:43;12.10;;;4.50;;
69434;SDS011;56625;54.322;18.582;2023-03-23T05:15:12;11.70;;;5.00;;
69434;SDS011;56625;54.322;18.582;2023-03-23T05:17:41;10.20;;;4.00;;
69434;SDS011;56625;54.322;18.582;2023-03-23T05:20:11;10.60;;;4.50;;
69434;SDS011;56625;54.322;18.582;2023-03-23T05:22:44;11.80;;;5.10;;
69434;SDS011;56625;54.322;18.582;2023-03-23T05:25:10;9.40;;;4.30;;
69434;SDS011;56625;54.322;18.582;2023-03-23T05:27:38;11.40;;;4.80;;
69434;SDS011;56625;54.322;18.582;2023-03-23T05:30:05;9.70;;;4.10;;
69434;SDS011;56625;54.322;18.582;2023-03-23T05:32:33;11.30;;;3.70;;
69434;SDS011;56625;54.322;18.582;2023-03-23T05:35:00;10.90;;;4.70;;
69434;SDS011;56625;54.322;18.582;2023-03-23T05:37:30;10.60;;;5.10;;
69434;SDS011;56625;54.322;18.582;2023-03-23T05:39:59;13.80;;;5.40;;
69434;SDS011;56625;54.322;18.582;2023-03-23T05:42:33;10.70;;;4.70;;
69434;SDS011;56625;54.322;18.582;2023-03-23T05:45:02;11.50;;;5.60;;
69434;SDS011;56625;54.322;18.582;2023-03-23T05:47:32;11.10;;;5.30;;
69434;SDS011;56625;54.322;18.582;2023-03-23T05:49:58;9.10;;;4.00;;
69434;SDS011;56625;54.322;18.582;2023-03-23T05:52:26;10.40;;;4.70;;
69434;SDS011;56625;54.322;18.582;2023-03-23T05:54:53;9.80;;;3.90;;
69434;SDS011;56625;54.322;18.582;2023-03-23T05:57:20;8.80;;;3.60;;
69434;SDS011;56625;54.322;18.582;2023-03-23T05:59:49;8.90;;;3.70;;
69434;SDS011;56625;54.322;18.582;2023-03-23T06:02:16;9.10;;;3.70;;
69434;SDS011;56625;54.322;18.582;2023-03-23T06:04:43;8.90;;;3.40;;
69434;SDS011;56625;54.322;18.582;2023-03-23T06:07:11;9.90;;;4.30;;
69434;SDS011;56625;54.322;18.582;2023-03-23T06:09:41;9.90;;;4.80;;
69434;SDS011;56625;54.322;18.582;2023-03-23T06:12:09;10.60;;;4.00;;
69434;SDS011;56625;54.322;18.582;2023-03-23T06:14:36;10.70;;;5.00;;
69434;SDS011;56625;54.322;18.582;2023-03-23T06:17:04;11.50;;;5.60;;
69434;SDS011;56625;54.322;18.582;2023-03-23T06:19:30;7.50;;;3.00;;
69434;SDS011;56625;54.322;18.582;2023-03-23T06:21:57;9.30;;;4.00;;
69434;SDS011;56625;54.322;18.582;2023-03-23T06:24:25;12.90;;;3.90;;
69434;SDS011;56625;54.322;18.582;2023-03-23T06:26:52;10.50;;;3.70;;
69434;SDS011;56625;54.322;18.582;2023-03-23T06:29:19;8.30;;;3.10;;
69434;SDS011;56625;54.322;18.582;2023-03-23T06:31:48;9.90;;;4.10;;
69434;SDS011;56625;54.322;18.582;2023-03-23T06:34:21;10.00;;;3.80;;
69434;SDS011;56625;54.322;18.582;2023-03-23T06:36:48;8.20;;;3.40;;
69434;SDS011;56625;54.322;18.582;2023-03-23T06:39:15;9.30;;;3.40;;
69434;SDS011;56625;54.322;18.582;2023-03-23T06:41:41;10.80;;;3.50;;
69434;SDS011;56625;54.322;18.582;2023-03-23T06:44:08;10.40;;;3.70;;
69434;SDS011;56625;54.322;18.582;2023-03-23T06:46:40;10.10;;;4.60;;
69434;SDS011;56625;54.322;18.582;2023-03-23T06:49:08;10.70;;;3.90;;
69434;SDS011;56625;54.322;18.582;2023-03-23T06:51:36;8.90;;;4.40;;
69434;SDS011;56625;54.322;18.582;2023-03-23T06:54:04;11.10;;;4.20;;
69434;SDS011;56625;54.322;18.582;2023-03-23T06:56:31;11.00;;;4.10;;
69434;SDS011;56625;54.322;18.582;2023-03-23T06:58:58;10.20;;;4.30;;
69434;SDS011;56625;54.322;18.582;2023-03-23T07:01:26;11.10;;;4.60;;
69434;SDS011;56625;54.322;18.582;2023-03-23T07:03:54;6.70;;;2.50;;
69434;SDS011;56625;54.322;18.582;2023-03-23T07:06:22;9.80;;;3.40;;
69434;SDS011;56625;54.322;18.582;2023-03-23T07:08:50;8.00;;;3.50;;
69434;SDS011;56625;54.322;18.582;2023-03-23T07:11:17;9.10;;;3.60;;
69434;SDS011;56625;54.322;18.582;2023-03-23T07:13:43;6.80;;;2.40;;
69434;SDS011;56625;54.322;18.582;2023-03-23T07:16:11;7.20;;;3.10;;
69434;SDS011;56625;54.322;18.582;2023-03-23T07:18:38;10.60;;;4.00;;
69434;SDS011;56625;54.322;18.582;2023-03-23T07:21:05;8.50;;;3.20;;
69434;SDS011;56625;54.322;18.582;2023-03-23T07:23:33;8.90;;;2.80;;
69434;SDS011;56625;54.322;18.582;2023-03-23T07:25:59;6.50;;;2.50;;
69434;SDS011;56625;54.322;18.582;2023-03-23T07:28:27;5.30;;;2.00;;
69434;SDS011;56625;54.322;18.582;2023-03-23T07:30:53;11.20;;;3.90;;
69434;SDS011;56625;54.322;18.582;2023-03-23T07:33:21;7.90;;;3.60;;
69434;SDS011;56625;54.322;18.582;2023-03-23T07:35:48;10.80;;;2.70;;
69434;SDS011;56625;54.322;18.582;2023-03-23T07:38:15;8.30;;;3.20;;
69434;SDS011;56625;54.322;18.582;2023-03-23T07:40:42;8.70;;;3.70;;
69434;SDS011;56625;54.322;18.582;2023-03-23T07:43:10;8.60;;;3.40;;
69434;SDS011;56625;54.322;18.582;2023-03-23T07:45:37;11.40;;;3.60;;
69434;SDS011;56625;54.322;18.582;2023-03-23T07:48:04;9.70;;;3.80;;
69434;SDS011;56625;54.322;18.582;2023-03-23T07:50:31;8.90;;;3.70;;
69434;SDS011;56625;54.322;18.582;2023-03-23T07:52:59;7.20;;;2.90;;
69434;SDS011;56625;54.322;18.582;2023-03-23T07:55:26;8.10;;;2.90;;
69434;SDS011;56625;54.322;18.582;2023-03-23T07:57:54;10.30;;;3.90;;
69434;SDS011;56625;54.322;18.582;2023-03-23T08:00:22;8.30;;;3.90;;
69434;SDS011;56625;54.322;18.582;2023-03-23T08:02:54;8.50;;;3.60;;
69434;SDS011;56625;54.322;18.582;2023-03-23T08:05:24;10.30;;;3.70;;
69434;SDS011;56625;54.322;18.582;2023-03-23T08:07:53;7.30;;;2.90;;
69434;SDS011;56625;54.322;18.582;2023-03-23T08:10:22;7.80;;;3.00;;
69434;SDS011;56625;54.322;18.582;2023-03-23T08:12:54;7.50;;;2.90;;
69434;SDS011;56625;54.322;18.582;2023-03-23T08:15:23;8.40;;;3.00;;
69434;SDS011;56625;54.322;18.582;2023-03-23T08:17:50;8.10;;;2.60;;
69434;SDS011;56625;54.322;18.582;2023-03-23T08:20:18;7.60;;;2.90;;
69434;SDS011;56625;54.322;18.582;2023-03-23T08:22:51;10.60;;;3.30;;
69434;SDS011;56625;54.322;18.582;2023-03-23T08:25:22;8.80;;;3.10;;
69434;SDS011;56625;54.322;18.582;2023-03-23T08:27:50;10.50;;;3.70;;
69434;SDS011;56625;54.322;18.582;2023-03-23T08:30:19;9.40;;;3.50;;
69434;SDS011;56625;54.322;18.582;2023-03-23T08:32:48;10.00;;;3.00;;
69434;SDS011;56625;54.322;18.582;2023-03-23T08:35:18;10.40;;;4.20;;
69434;SDS011;56625;54.322;18.582;2023-03-23T08:37:46;7.50;;;2.80;;
69434;SDS011;56625;54.322;18.582;2023-03-23T08:40:19;8.10;;;2.20;;
69434;SDS011;56625;54.322;18.582;2023-03-23T08:42:49;9.00;;;3.00;;
69434;SDS011;56625;54.322;18.582;2023-03-23T08:45:20;6.30;;;2.10;;
69434;SDS011;56625;54.322;18.582;2023-03-23T08:47:49;7.40;;;2.60;;
69434;SDS011;56625;54.322;18.582;2023-03-23T08:50:26;7.90;;;2.80;;
69434;SDS011;56625;54.322;18.582;2023-03-23T08:52:54;8.30;;;2.50;;
69434;SDS011;56625;54.322;18.582;2023-03-23T08:55:22;9.80;;;3.10;;
69434;SDS011;56625;54.322;18.582;2023-03-23T08:57:49;6.90;;;2.40;;
69434;SDS011;56625;54.322;18.582;2023-03-23T09:00:18;7.00;;;2.80;;
69434;SDS011;56625;54.322;18.582;2023-03-23T09:02:49;8.40;;;2.70;;
69434;SDS011;56625;54.322;18.582;2023-03-23T09:05:21;6.00;;;2.30;;
69434;SDS011;56625;54.322;18.582;2023-03-23T09:07:52;7.90;;;2.80;;
69434;SDS011;56625;54.322;18.582;2023-03-23T09:10:21;7.20;;;2.50;;
69434;SDS011;56625;54.322;18.582;2023-03-23T09:12:49;7.40;;;2.30;;
69434;SDS011;56625;54.322;18.582;2023-03-23T09:15:17;6.20;;;2.30;;
69434;SDS011;56625;54.322;18.582;2023-03-23T09:17:47;5.90;;;2.20;;
69434;SDS011;56625;54.322;18.582;2023-03-23T09:20:19;6.80;;;2.10;;
69434;SDS011;56625;54.322;18.582;2023-03-23T09:22:50;6.70;;;2.30;;
69434;SDS011;56625;54.322;18.582;2023-03-23T09:25:21;7.70;;;2.10;;
69434;SDS011;56625;54.322;18.582;2023-03-23T09:27:53;6.50;;;2.30;;
69434;SDS011;56625;54.322;18.582;2023-03-23T09:30:29;7.00;;;2.40;;
69434;SDS011;56625;54.322;18.582;2023-03-23T09:33:00;6.20;;;2.10;;
69434;SDS011;56625;54.322;18.582;2023-03-23T09:35:28;6.50;;;2.20;;
69434;SDS011;56625;54.322;18.582;2023-03-23T09:37:57;6.60;;;2.00;;
69434;SDS011;56625;54.322;18.582;2023-03-23T09:40:32;4.90;;;2.00;;
69434;SDS011;56625;54.322;18.582;2023-03-23T09:49:10;7.70;;;2.80;;
69434;SDS011;56625;54.322;18.582;2023-03-23T09:52:19;7.20;;;2.70;;
69434;SDS011;56625;54.322;18.582;2023-03-23T09:54:48;6.10;;;2.20;;
69434;SDS011;56625;54.322;18.582;2023-03-23T09:57:43;6.30;;;2.50;;
69434;SDS011;56625;54.322;18.582;2023-03-23T10:00:26;6.80;;;2.10;;
69434;SDS011;56625;54.322;18.582;2023-03-23T10:03:18;7.50;;;2.80;;
69434;SDS011;56625;54.322;18.582;2023-03-23T10:05:53;6.30;;;1.90;;
69434;SDS011;56625;54.322;18.582;2023-03-23T10:08:46;6.00;;;2.00;;
69434;SDS011;56625;54.322;18.582;2023-03-23T10:14:52;5.60;;;1.90;;
69434;SDS011;56625;54.322;18.582;2023-03-23T10:16:55;5.10;;;1.70;;
69434;SDS011;56625;54.322;18.582;2023-03-23T10:20:20;6.50;;;2.40;;
69434;SDS011;56625;54.322;18.582;2023-03-23T10:23:00;4.20;;;1.50;;
69434;SDS011;56625;54.322;18.582;2023-03-23T10:25:36;7.00;;;2.00;;
69434;SDS011;56625;54.322;18.582;2023-03-23T10:28:11;3.90;;;1.30;;
69434;SDS011;56625;54.322;18.582;2023-03-23T10:30:42;7.90;;;2.50;;
69434;SDS011;56625;54.322;18.582;2023-03-23T10:33:20;7.40;;;2.40;;
69434;SDS011;56625;54.322;18.582;2023-03-23T10:36:10;6.70;;;1.90;;
69434;SDS011;56625;54.322;18.582;2023-03-23T10:38:56;4.80;;;1.50;;
69434;SDS011;56625;54.322;18.582;2023-03-23T10:41:34;3.20;;;1.00;;
69434;SDS011;56625;54.322;18.582;2023-03-23T10:44:01;3.90;;;0.90;;
69434;SDS011;56625;54.322;18.582;2023-03-23T10:47:02;4.30;;;1.50;;
69434;SDS011;56625;54.322;18.582;2023-03-23T10:49:47;5.50;;;1.20;;
69434;SDS011;56625;54.322;18.582;2023-03-23T10:52:33;4.50;;;1.50;;
69434;SDS011;56625;54.322;18.582;2023-03-23T10:55:10;4.40;;;1.00;;
69434;SDS011;56625;54.322;18.582;2023-03-23T10:57:47;5.30;;;1.20;;
69434;SDS011;56625;54.322;18.582;2023-03-23T11:00:28;3.50;;;1.00;;
69434;SDS011;56625;54.322;18.582;2023-03-23T11:05:43;5.80;;;0.90;;
69434;SDS011;56625;54.322;18.582;2023-03-23T11:08:26;4.70;;;1.30;;
69434;SDS011;56625;54.322;18.582;2023-03-23T11:11:11;3.50;;;1.00;;
69434;SDS011;56625;54.322;18.582;2023-03-23T11:13:47;4.60;;;1.30;;
69434;SDS011;56625;54.322;18.582;2023-03-23T11:16:32;3.10;;;0.90;;
69434;SDS011;56625;54.322;18.582;2023-03-23T11:19:16;3.60;;;0.90;;
69434;SDS011;56625;54.322;18.582;2023-03-23T11:21:54;3.50;;;1.10;;
69434;SDS011;56625;54.322;18.582;2023-03-23T11:24:26;3.80;;;0.80;;
69434;SDS011;56625;54.322;18.582;2023-03-23T11:26:56;4.00;;;1.30;;
69434;SDS011;56625;54.322;18.582;2023-03-23T11:29:26;3.30;;;1.10;;
69434;SDS011;56625;54.322;18.582;2023-03-23T11:32:04;4.50;;;1.30;;
69434;SDS011;56625;54.322;18.582;2023-03-23T11:34:47;5.30;;;1.20;;
69434;SDS011;56625;54.322;18.582;2023-03-23T11:37:31;4.50;;;1.40;;
69434;SDS011;56625;54.322;18.582;2023-03-23T11:40:14;3.50;;;1.00;;
69434;SDS011;56625;54.322;18.582;2023-03-23T11:45:32;3.90;;;0.80;;
69434;SDS011;56625;54.322;18.582;2023-03-23T11:48:15;4.40;;;0.80;;
69434;SDS011;56625;54.322;18.582;2023-03-23T11:50:59;3.80;;;1.00;;
69434;SDS011;56625;54.322;18.582;2023-03-23T11:53:54;4.80;;;1.10;;
69434;SDS011;56625;54.322;18.582;2023-03-23T11:56:29;3.30;;;0.80;;
69434;SDS011;56625;54.322;18.582;2023-03-23T11:59:00;3.50;;;1.00;;
69434;SDS011;56625;54.322;18.582;2023-03-23T12:04:53;4.20;;;1.00;;
69434;SDS011;56625;54.322;18.582;2023-03-23T12:10:30;3.40;;;0.80;;
69434;SDS011;56625;54.322;18.582;2023-03-23T12:28:11;3.00;;;0.80;;
69434;SDS011;56625;54.322;18.582;2023-03-23T12:30:55;3.10;;;0.70;;
69434;SDS011;56625;54.322;18.582;2023-03-23T12:33:54;4.50;;;0.80;;
69434;SDS011;56625;54.322;18.582;2023-03-23T12:36:41;4.20;;;1.40;;
69434;SDS011;56625;54.322;18.582;2023-03-23T12:42:47;3.20;;;0.80;;
69434;SDS011;56625;54.322;18.582;2023-03-23T12:48:01;3.40;;;0.70;;
69434;SDS011;56625;54.322;18.582;2023-03-23T12:50:41;3.70;;;0.90;;
69434;SDS011;56625;54.322;18.582;2023-03-23T12:53:21;2.90;;;0.80;;
69434;SDS011;56625;54.322;18.582;2023-03-23T13:00:02;3.70;;;0.60;;
69434;SDS011;56625;54.322;18.582;2023-03-23T13:02:46;3.00;;;0.70;;
69434;SDS011;56625;54.322;18.582;2023-03-23T13:07:59;2.00;;;0.40;;
69434;SDS011;56625;54.322;18.582;2023-03-23T13:10:38;5.10;;;0.90;;
69434;SDS011;56625;54.322;18.582;2023-03-23T13:13:44;2.60;;;0.70;;
69434;SDS011;56625;54.322;18.582;2023-03-23T13:16:41;3.20;;;0.80;;
69434;SDS011;56625;54.322;18.582;2023-03-23T13:22:23;3.00;;;0.70;;
69434;SDS011;56625;54.322;18.582;2023-03-23T13:25:02;4.40;;;1.00;;
69434;SDS011;56625;54.322;18.582;2023-03-23T13:27:57;3.30;;;0.80;;
69434;SDS011;56625;54.322;18.582;2023-03-23T13:30:26;3.10;;;0.60;;
69434;SDS011;56625;54.322;18.582;2023-03-23T13:33:06;4.50;;;1.00;;
69434;SDS011;56625;54.322;18.582;2023-03-23T13:35:40;3.80;;;0.90;;
69434;SDS011;56625;54.322;18.582;2023-03-23T13:38:24;3.60;;;0.70;;
69434;SDS011;56625;54.322;18.582;2023-03-23T13:40:55;2.10;;;0.50;;
69434;SDS011;56625;54.322;18.582;2023-03-23T13:43:34;5.20;;;1.50;;
69434;SDS011;56625;54.322;18.582;2023-03-23T13:49:04;2.30;;;0.70;;
69434;SDS011;56625;54.322;18.582;2023-03-23T13:54:41;2.60;;;0.80;;
69434;SDS011;56625;54.322;18.582;2023-03-23T13:57:33;4.30;;;1.20;;
69434;SDS011;56625;54.322;18.582;2023-03-23T14:10:59;2.90;;;0.60;;
69434;SDS011;56625;54.322;18.582;2023-03-23T14:16:35;4.30;;;1.00;;
69434;SDS011;56625;54.322;18.582;2023-03-23T14:19:27;4.90;;;1.00;;
69434;SDS011;56625;54.322;18.582;2023-03-23T14:21:57;2.90;;;0.70;;
69434;SDS011;56625;54.322;18.582;2023-03-23T14:24:33;5.10;;;1.30;;
69434;SDS011;56625;54.322;18.582;2023-03-23T14:27:13;4.10;;;1.00;;
69434;SDS011;56625;54.322;18.582;2023-03-23T14:29:42;3.00;;;1.10;;
69434;SDS011;56625;54.322;18.582;2023-03-23T14:32:16;3.50;;;0.70;;
69434;SDS011;56625;54.322;18.582;2023-03-23T14:34:47;3.20;;;0.60;;
69434;SDS011;56625;54.322;18.582;2023-03-23T14:37:15;5.30;;;0.80;;
69434;SDS011;56625;54.322;18.582;2023-03-23T14:39:48;5.30;;;1.40;;
69434;SDS011;56625;54.322;18.582;2023-03-23T14:42:26;3.90;;;0.70;;
69434;SDS011;56625;54.322;18.582;2023-03-23T14:44:57;4.50;;;1.00;;
69434;SDS011;56625;54.322;18.582;2023-03-23T14:47:30;4.80;;;1.00;;
69434;SDS011;56625;54.322;18.582;2023-03-23T14:50:02;5.40;;;1.00;;
69434;SDS011;56625;54.322;18.582;2023-03-23T14:52:36;4.90;;;1.50;;
69434;SDS011;56625;54.322;18.582;2023-03-23T14:55:16;4.00;;;1.00;;
69434;SDS011;56625;54.322;18.582;2023-03-23T14:57:45;4.00;;;0.80;;
69434;SDS011;56625;54.322;18.582;2023-03-23T15:02:45;3.20;;;0.80;;
69434;SDS011;56625;54.322;18.582;2023-03-23T15:05:26;4.00;;;1.10;;
69434;SDS011;56625;54.322;18.582;2023-03-23T15:08:06;3.20;;;0.90;;
69434;SDS011;56625;54.322;18.582;2023-03-23T15:13:49;4.50;;;1.30;;
69434;SDS011;56625;54.322;18.582;2023-03-23T15:16:30;3.90;;;0.90;;
69434;SDS011;56625;54.322;18.582;2023-03-23T15:19:14;5.90;;;1.40;;
69434;SDS011;56625;54.322;18.582;2023-03-23T15:22:04;4.20;;;1.00;;
69434;SDS011;56625;54.322;18.582;2023-03-23T15:27:40;5.30;;;1.30;;
69434;SDS011;56625;54.322;18.582;2023-03-23T15:32:59;4.40;;;0.90;;
69434;SDS011;56625;54.322;18.582;2023-03-23T15:35:41;7.00;;;1.20;;
69434;SDS011;56625;54.322;18.582;2023-03-23T15:38:25;4.90;;;1.20;;
69434;SDS011;56625;54.322;18.582;2023-03-23T15:41:01;4.20;;;1.10;;
69434;SDS011;56625;54.322;18.582;2023-03-23T15:43:33;4.50;;;1.20;;
69434;SDS011;56625;54.322;18.582;2023-03-23T15:46:05;4.00;;;1.20;;
69434;SDS011;56625;54.322;18.582;2023-03-23T15:51:29;4.00;;;1.10;;
69434;SDS011;56625;54.322;18.582;2023-03-23T15:53:58;4.00;;;0.80;;
69434;SDS011;56625;54.322;18.582;2023-03-23T15:56:25;3.80;;;0.80;;
69434;SDS011;56625;54.322;18.582;2023-03-23T15:58:53;4.20;;;1.10;;
69434;SDS011;56625;54.322;18.582;2023-03-23T16:01:24;5.80;;;1.40;;
69434;SDS011;56625;54.322;18.582;2023-03-23T16:03:59;4.80;;;1.20;;
69434;SDS011;56625;54.322;18.582;2023-03-23T16:06:33;3.80;;;0.80;;
69434;SDS011;56625;54.322;18.582;2023-03-23T16:09:05;5.30;;;1.10;;
69434;SDS011;56625;54.322;18.582;2023-03-23T16:11:34;3.50;;;1.00;;
69434;SDS011;56625;54.322;18.582;2023-03-23T16:14:02;4.40;;;0.90;;
69434;SDS011;56625;54.322;18.582;2023-03-23T16:19:05;5.50;;;1.30;;
69434;SDS011;56625;54.322;18.582;2023-03-23T16:21:34;4.20;;;1.10;;
69434;SDS011;56625;54.322;18.582;2023-03-23T16:24:02;5.40;;;1.20;;
69434;SDS011;56625;54.322;18.582;2023-03-23T16:26:34;3.50;;;0.80;;
69434;SDS011;56625;54.322;18.582;2023-03-23T16:29:09;5.00;;;1.00;;
69434;SDS011;56625;54.322;18.582;2023-03-23T16:31:55;4.60;;;1.20;;
69434;SDS011;56625;54.322;18.582;2023-03-23T16:34:23;4.60;;;1.20;;
69434;SDS011;56625;54.322;18.582;2023-03-23T16:36:51;3.80;;;0.80;;
69434;SDS011;56625;54.322;18.582;2023-03-23T16:39:19;5.00;;;1.20;;
69434;SDS011;56625;54.322;18.582;2023-03-23T16:41:47;4.80;;;1.30;;
69434;SDS011;56625;54.322;18.582;2023-03-23T16:44:15;5.20;;;1.20;;
69434;SDS011;56625;54.322;18.582;2023-03-23T16:46:43;8.20;;;0.90;;
69434;SDS011;56625;54.322;18.582;2023-03-23T16:49:11;5.10;;;1.40;;
69434;SDS011;56625;54.322;18.582;2023-03-23T16:51:39;4.40;;;1.10;;